Time;durP1;ratioP1;P1;durP2;ratioP2;P2;SDS_P1;SDS_P2;PMS_P1;PMS_P2;Temp;Humidity;BMP_temperature;BMP_pressure;BME280_temperature;BME280_humidity;BME280_pressure;Samples;Min_cycle;Max_cycle;Signal;HPM_P1;HPM_P2
2021/09/03 00:00:21;;;;;;;7.78;5.00;;;;;;;17.58;62.64;100375.63;814541;54;20042;-79
2021/09/03 00:01:08;;;;;;;10.18;5.20;;;;;;;17.58;62.72;100379.16;814351;47;20088;-79
2021/09/03 00:01:59;;;;;;;8.55;4.88;;;;;;;17.56;62.60;100373.13;814802;54;20035;-79
2021/09/03 00:02:47;;;;;;;7.50;4.65;;;;;;;17.54;62.61;100380.56;814799;39;20571;-79
2021/09/03 00:03:37;;;;;;;7.20;5.05;;;;;;;17.56;62.70;100375.84;814542;54;20033;-79
2021/09/03 00:04:23;;;;;;;6.68;4.75;;;;;;;17.57;62.56;100377.47;814208;47;20038;-78
2021/09/03 00:05:17;;;;;;;7.97;5.22;;;;;;;17.53;63.05;100373.47;814230;54;20042;-79
2021/09/03 00:06:03;;;;;;;6.47;4.60;;;;;;;17.52;63.01;100379.91;814433;47;20058;-78
2021/09/03 00:06:51;;;;;;;6.25;4.22;;;;;;;17.54;62.74;100369.75;814662;39;20960;-79
2021/09/03 00:07:37;;;;;;;5.97;4.05;;;;;;;17.55;63.07;100371.44;814359;47;20038;-79
2021/09/03 00:08:26;;;;;;;6.63;4.50;;;;;;;17.55;62.62;100370.59;814290;47;20030;-79
2021/09/03 00:09:12;;;;;;;8.55;4.60;;;;;;;17.51;63.10;100375.53;814501;54;20118;-79
2021/09/03 00:10:01;;;;;;;6.30;4.25;;;;;;;17.53;62.93;100370.78;814439;47;20059;-79
2021/09/03 00:10:47;;;;;;;6.35;4.25;;;;;;;17.47;62.81;100363.41;814391;54;20077;-79
2021/09/03 00:11:36;;;;;;;6.78;4.45;;;;;;;17.46;63.09;100362.56;814227;47;20837;-79
2021/09/03 00:12:23;;;;;;;6.45;4.38;;;;;;;17.43;63.10;100362.09;814409;54;20138;-79
2021/09/03 00:13:11;;;;;;;6.45;4.38;;;;;;;17.45;63.10;100366.28;821576;31;20557;-79
2021/09/03 00:13:57;;;;;;;7.28;4.60;;;;;;;17.42;63.15;100368.50;814555;54;20038;-79
2021/09/03 00:14:43;;;;;;;14.50;5.00;;;;;;;17.34;63.52;100368.56;813842;47;20048;-79
2021/09/03 00:15:36;;;;;;;6.82;4.50;;;;;;;17.32;63.98;100366.06;813947;54;20034;-80
2021/09/03 00:16:22;;;;;;;6.22;4.35;;;;;;;17.25;63.98;100368.66;814524;54;20135;-79
2021/09/03 00:17:13;;;;;;;7.60;5.00;;;;;;;17.23;64.03;100365.28;813962;47;20067;-80
2021/09/03 00:18:02;;;;;;;7.20;4.82;;;;;;;17.23;63.88;100361.75;814397;54;20148;-80
2021/09/03 00:18:51;;;;;;;6.38;4.95;;;;;;;17.26;64.04;100361.38;814175;54;20046;-80
2021/09/03 00:19:37;;;;;;;6.95;4.60;;;;;;;17.20;63.92;100362.09;814502;54;20039;-78
2021/09/03 00:20:32;;;;;;;9.00;4.70;;;;;;;17.17;64.30;100363.31;814262;54;20084;-79
2021/09/03 00:21:18;;;;;;;7.80;5.05;;;;;;;17.15;64.37;100359.94;814815;54;20043;-79
2021/09/03 00:22:07;;;;;;;6.70;4.72;;;;;;;17.20;64.33;100362.94;814675;54;20042;-80
2021/09/03 00:22:54;;;;;;;8.02;5.15;;;;;;;17.19;64.24;100361.28;814640;46;20063;-80
2021/09/03 00:23:43;;;;;;;7.97;5.07;;;;;;;17.13;64.36;100360.13;814760;54;20102;-79
2021/09/03 00:24:29;;;;;;;7.72;4.65;;;;;;;17.15;64.49;100359.94;814438;54;20038;-79
2021/09/03 00:25:18;;;;;;;9.02;4.88;;;;;;;17.17;64.59;100357.91;814019;54;20109;-80
2021/09/03 00:26:04;;;;;;;6.72;4.03;;;;;;;17.21;64.15;100352.97;814638;47;20046;-81
2021/09/03 00:26:54;;;;;;;7.80;4.65;;;;;;;17.21;64.45;100359.22;814327;54;20069;-81
2021/09/03 00:27:40;;;;;;;6.70;4.28;;;;;;;17.23;64.32;100356.34;814403;54;20063;-78
2021/09/03 00:28:31;;;;;;;6.75;4.28;;;;;;;17.20;64.33;100354.81;814326;47;20042;-79
2021/09/03 00:29:17;;;;;;;7.35;4.45;;;;;;;17.18;64.59;100353.34;814517;47;20185;-79
2021/09/03 00:30:07;;;;;;;6.63;4.80;;;;;;;17.14;64.39;100352.84;814505;54;20034;-80
2021/09/03 00:30:53;;;;;;;6.07;4.35;;;;;;;17.16;64.76;100350.81;814056;47;20046;-79
2021/09/03 00:31:41;;;;;;;6.43;4.53;;;;;;;17.19;64.34;100355.00;814426;47;20064;-80
2021/09/03 00:32:30;;;;;;;7.35;5.03;;;;;;;17.11;64.70;100359.47;814823;54;20063;-80
2021/09/03 00:33:19;;;;;;;5.50;3.97;;;;;;;17.12;64.41;100352.19;814630;54;20042;-80
2021/09/03 00:34:05;;;;;;;6.40;4.70;;;;;;;17.11;64.46;100354.06;814719;54;20039;-79
2021/09/03 00:34:53;;;;;;;6.90;4.53;;;;;;;17.05;64.96;100351.25;814504;47;20042;-80
2021/09/03 00:35:40;;;;;;;6.70;4.88;;;;;;;17.06;64.63;100355.63;814647;47;20716;-79
2021/09/03 00:36:28;;;;;;;8.15;4.95;;;;;;;17.04;64.97;100353.13;814427;47;20043;-80
2021/09/03 00:37:14;;;;;;;9.30;5.18;;;;;;;16.97;64.94;100352.13;814628;46;20053;-80
2021/09/03 00:38:03;;;;;;;6.85;4.45;;;;;;;16.99;64.96;100350.94;814406;47;20068;-80
2021/09/03 00:38:49;;;;;;;6.30;4.28;;;;;;;16.99;65.01;100345.56;814533;47;20038;-79
2021/09/03 00:39:38;;;;;;;6.97;4.75;;;;;;;17.03;64.94;100347.88;814801;54;20069;-80
2021/09/03 00:40:24;;;;;;;7.53;4.63;;;;;;;17.04;65.00;100349.56;814274;47;20094;-80
2021/09/03 00:41:12;;;;;;;6.40;4.28;;;;;;;17.09;64.86;100350.69;814789;54;20034;-79
2021/09/03 00:41:59;;;;;;;6.05;4.25;;;;;;;17.09;64.57;100350.69;814854;46;20118;-79
2021/09/03 00:42:48;;;;;;;5.85;4.15;;;;;;;17.07;64.55;100346.50;814581;47;20041;-78
2021/09/03 00:43:34;;;;;;;6.72;4.70;;;;;;;17.04;65.01;100345.00;814863;54;20042;-81
2021/09/03 00:44:23;;;;;;;7.00;4.60;;;;;;;17.04;64.87;100341.44;814693;54;20042;-79
2021/09/03 00:45:10;;;;;;;6.90;4.38;;;;;;;17.03;64.80;100339.78;814786;54;20045;-78
2021/09/03 00:45:58;;;;;;;7.40;4.65;;;;;;;17.02;65.07;100338.09;814334;54;20042;-79
2021/09/03 00:46:44;;;;;;;6.75;4.32;;;;;;;17.00;64.74;100341.81;814469;47;20055;-79
2021/09/03 00:47:35;;;;;;;8.05;4.50;;;;;;;16.93;65.35;100346.25;814405;54;20042;-78
2021/09/03 00:48:21;;;;;;;6.00;4.18;;;;;;;16.95;65.28;100335.28;814372;54;20047;-79
2021/09/03 00:49:10;;;;;;;6.35;4.28;;;;;;;16.96;65.21;100337.78;814438;46;20043;-79
2021/09/03 00:49:56;;;;;;;8.05;4.78;;;;;;;16.95;65.25;100344.22;814429;47;20054;-79
2021/09/03 00:50:46;;;;;;;6.88;4.82;;;;;;;16.95;65.02;100344.22;814352;46;20042;-78
2021/09/03 00:51:35;;;;;;;5.85;4.10;;;;;;;16.92;65.03;100339.13;814370;47;20746;-78
2021/09/03 00:52:25;;;;;;;6.57;4.30;;;;;;;16.90;64.98;100346.59;815140;47;20068;-78
2021/09/03 00:53:11;;;;;;;;;;;;;;;16.74;65.56;100352.06;815569;54;20061;-79
2021/09/03 00:53:59;;;;;;;7.28;4.82;;;;;;;16.73;65.59;100340.44;815091;47;19967;-79
2021/09/03 00:54:45;;;;;;;8.43;4.88;;;;;;;16.73;65.86;100347.69;814782;47;20063;-79
2021/09/03 00:55:34;;;;;;;7.40;4.32;;;;;;;16.72;65.72;100344.16;814574;54;20149;-79
2021/09/03 00:56:20;;;;;;;5.78;3.97;;;;;;;16.73;65.77;100336.88;814390;47;20038;-79
2021/09/03 00:57:10;;;;;;;8.27;4.95;;;;;;;16.72;65.69;100338.75;814505;54;20817;-78
2021/09/03 00:57:57;;;;;;;7.05;4.68;;;;;;;16.68;66.00;100343.69;814402;47;20047;-78
2021/09/03 00:58:46;;;;;;;7.60;4.40;;;;;;;16.65;65.87;100333.22;814765;54;20035;-78
2021/09/03 00:59:32;;;;;;;9.85;5.13;;;;;;;16.62;66.12;100343.53;814368;47;20948;-79
2021/09/03 01:00:26;;;;;;;7.28;4.47;;;;;;;16.53;66.54;100334.66;814414;54;20042;-79
2021/09/03 01:01:12;;;;;;;7.07;4.43;;;;;;;16.54;66.25;100341.72;814338;54;20062;-78
2021/09/03 01:02:01;;;;;;;5.72;4.07;;;;;;;16.56;66.10;100337.00;814460;47;20663;-79
2021/09/03 01:02:50;;;;;;;6.65;4.32;;;;;;;16.55;66.16;100338.00;814329;47;20042;-79
2021/09/03 01:03:39;;;;;;;6.22;4.45;;;;;;;16.57;66.35;100338.69;814423;47;20050;-79
2021/09/03 01:04:25;;;;;;;6.60;4.05;;;;;;;16.56;66.04;100345.09;814237;47;20070;-78
2021/09/03 01:05:13;;;;;;;6.47;4.20;;;;;;;16.56;66.39;100339.69;814359;46;20067;-79
2021/09/03 01:06:02;;;;;;;6.22;3.88;;;;;;;16.56;66.32;100339.69;814427;54;20047;-79
2021/09/03 01:06:51;;;;;;;7.07;4.38;;;;;;;16.51;66.40;100344.78;814880;54;20034;-79
2021/09/03 01:07:37;;;;;;;5.97;4.40;;;;;;;16.50;66.20;100340.41;814274;47;20191;-78
2021/09/03 01:08:26;;;;;;;6.55;4.22;;;;;;;16.51;66.17;100344.78;814252;47;20050;-78
2021/09/03 01:09:12;;;;;;;7.32;4.25;;;;;;;16.48;66.21;100337.88;815825;39;20493;-79
2021/09/03 01:10:00;;;;;;;6.03;4.07;;;;;;;16.52;66.50;100343.78;814263;54;20060;-79
2021/09/03 01:10:46;;;;;;;6.43;3.85;;;;;;;16.36;66.89;100339.28;815759;39;20817;-80
2021/09/03 01:11:35;;;;;;;6.75;4.60;;;;;;;16.48;66.50;100340.56;814323;46;20042;-80
2021/09/03 01:12:21;;;;;;;13.30;4.65;;;;;;;16.50;66.33;100340.41;814362;54;20053;-78
2021/09/03 01:13:10;;;;;;;7.55;5.00;;;;;;;16.37;66.97;100340.97;814264;54;20841;-79
2021/09/03 01:13:56;;;;;;;9.35;5.15;;;;;;;16.34;67.08;100336.75;814408;47;20046;-79
2021/09/03 01:14:44;;;;;;;6.72;4.70;;;;;;;16.33;66.96;100329.72;816015;39;20959;-78
2021/09/03 01:15:30;;;;;;;7.90;5.18;;;;;;;16.32;67.08;100338.81;814223;47;20046;-79
2021/09/03 01:16:19;;;;;;;6.85;4.68;;;;;;;16.39;67.05;100333.53;814385;54;20034;-78
2021/09/03 01:17:05;;;;;;;9.35;4.72;;;;;;;16.43;66.80;100339.44;814289;47;20054;-78
2021/09/03 01:17:56;;;;;;;7.07;5.18;;;;;;;16.46;66.79;100333.66;814333;54;20034;-79
2021/09/03 01:18:42;;;;;;;8.90;4.43;;;;;;;16.50;66.82;100332.31;814355;54;20710;-78
2021/09/03 01:19:31;;;;;;;7.72;4.40;;;;;;;16.50;66.82;100335.00;816217;39;20863;-78
2021/09/03 01:20:17;;;;;;;7.25;4.15;;;;;;;16.52;66.37;100335.69;814330;47;20046;-79
2021/09/03 01:21:06;;;;;;;6.82;4.53;;;;;;;16.46;66.60;100329.13;814353;54;20090;-78
2021/09/03 01:21:54;;;;;;;10.02;4.55;;;;;;;16.34;66.98;100320.56;814464;47;20102;-79
2021/09/03 01:22:43;;;;;;;7.13;4.75;;;;;;;16.41;67.13;100325.28;814280;46;20043;-79
2021/09/03 01:23:29;;;;;;;9.02;5.20;;;;;;;16.40;66.94;100331.69;814481;54;20050;-79
2021/09/03 01:24:18;;;;;;;7.95;4.65;;;;;;;16.40;67.00;100329.00;814509;47;20043;-80
2021/09/03 01:25:05;;;;;;;7.60;4.82;;;;;;;16.36;66.98;100323.94;814690;47;20062;-79
2021/09/03 01:25:54;;;;;;;9.43;5.47;;;;;;;16.28;67.39;100326.69;815881;39;20445;-80
2021/09/03 01:26:40;;;;;;;7.82;5.18;;;;;;;16.17;67.57;100327.06;814428;47;20071;-79
2021/09/03 01:27:28;;;;;;;9.23;6.13;;;;;;;16.03;68.19;100329.47;814242;46;20034;-78
2021/09/03 01:28:14;;;;;;;10.55;5.95;;;;;;;15.93;68.32;100334.22;814216;54;20046;-78
2021/09/03 01:29:03;;;;;;;9.75;5.80;;;;;;;15.95;68.75;100329.50;814376;47;20041;-80
2021/09/03 01:29:49;;;;;;;9.43;5.97;;;;;;;15.93;68.79;100328.84;814388;54;20159;-78
2021/09/03 01:30:37;;;;;;;10.38;6.13;;;;;;;15.90;68.61;100338.13;814398;47;20133;-79
2021/09/03 01:31:23;;;;;;;7.95;5.63;;;;;;;15.88;68.80;100331.19;814419;47;20704;-79
2021/09/03 01:32:12;;;;;;;10.77;6.25;;;;;;;15.89;68.53;100343.66;814066;47;20075;-79
2021/09/03 01:32:58;;;;;;;8.02;5.50;;;;;;;15.95;68.72;100336.75;819032;39;20600;-78
2021/09/03 01:33:48;;;;;;;9.00;5.50;;;;;;;15.86;68.83;100330.56;814480;54;20067;-79
2021/09/03 01:34:34;;;;;;;8.75;5.70;;;;;;;15.72;69.21;100332.88;814447;54;20106;-79
2021/09/03 01:35:22;;;;;;;8.73;5.75;;;;;;;15.66;69.44;100333.59;814693;39;20545;-78
2021/09/03 01:36:08;;;;;;;8.48;5.70;;;;;;;15.74;69.55;100330.88;814335;47;20743;-78
2021/09/03 01:37:00;;;;;;;8.38;5.38;;;;;;;15.62;69.92;100331.41;814369;47;20043;-78
2021/09/03 01:37:46;;;;;;;9.02;6.18;;;;;;;15.53;69.87;100333.25;814414;54;20046;-78
2021/09/03 01:38:34;;;;;;;9.77;6.75;;;;;;;15.48;70.13;100335.63;814494;46;20042;-79
2021/09/03 01:39:20;;;;;;;9.77;6.07;;;;;;;15.44;70.55;100335.13;814277;54;20046;-78
2021/09/03 01:40:10;;;;;;;9.07;6.68;;;;;;;15.51;70.34;100329.88;815361;39;20696;-79
2021/09/03 01:40:56;;;;;;;10.77;6.30;;;;;;;15.51;70.00;100336.13;814530;54;20038;-78
2021/09/03 01:41:45;;;;;;;8.20;5.43;;;;;;;15.53;69.92;100338.66;814695;54;20042;-79
2021/09/03 01:42:31;;;;;;;7.32;5.65;;;;;;;15.46;70.29;100338.47;814430;54;20072;-79
2021/09/03 01:43:20;;;;;;;8.20;6.10;;;;;;;15.38;70.51;100344.72;814687;46;20035;-78
2021/09/03 01:44:08;;;;;;;9.38;6.75;;;;;;;15.14;71.49;100340.19;814624;47;20063;-78
2021/09/03 01:44:56;;;;;;;10.57;6.70;;;;;;;15.09;71.56;100343.38;814581;54;20054;-79
2021/09/03 01:45:42;;;;;;;13.95;6.80;;;;;;;15.03;71.92;100344.03;814427;47;20046;-78
2021/09/03 01:46:31;;;;;;;9.50;6.38;;;;;;;14.95;71.89;100342.19;814814;47;20035;-78
2021/09/03 01:47:17;;;;;;;11.25;7.22;;;;;;;14.88;72.60;100334.94;814617;54;20081;-80
2021/09/03 01:48:07;;;;;;;10.65;7.13;;;;;;;14.79;72.89;100332.22;814696;47;20079;-79
2021/09/03 01:48:52;;;;;;;8.43;6.40;;;;;;;14.82;72.59;100342.69;814650;54;20077;-79
2021/09/03 01:49:41;;;;;;;9.07;6.07;;;;;;;14.82;72.59;100340.00;814510;47;20042;-79
2021/09/03 01:50:27;;;;;;;10.32;6.82;;;;;;;14.68;73.07;100345.16;814513;47;20062;-79
2021/09/03 01:51:16;;;;;;;10.57;6.50;;;;;;;14.62;73.39;100343.94;814695;54;20059;-79
2021/09/03 01:52:05;;;;;;;9.68;7.13;;;;;;;14.58;73.45;100337.19;814671;46;20102;-78
2021/09/03 01:52:53;;;;;;;9.65;5.97;;;;;;;14.61;73.18;100339.56;814559;47;20041;-80
2021/09/03 01:53:39;;;;;;;9.73;6.30;;;;;;;14.65;73.21;100340.91;814780;47;20038;-79
2021/09/03 01:54:28;;;;;;;9.80;6.63;;;;;;;14.66;73.14;100331.81;814641;54;20034;-79
2021/09/03 01:55:15;;;;;;;10.10;7.07;;;;;;;14.63;72.94;100338.38;814475;47;20038;-80
2021/09/03 01:56:03;;;;;;;8.98;6.50;;;;;;;14.59;72.97;100341.56;814911;54;20127;-80
2021/09/03 01:56:50;;;;;;;9.27;6.63;;;;;;;14.56;73.21;100339.19;815044;54;20038;-80
2021/09/03 01:57:39;;;;;;;9.55;6.38;;;;;;;14.51;73.22;100340.53;815029;54;20920;-79
2021/09/03 01:58:29;;;;;;;9.18;6.28;;;;;;;14.56;73.10;100336.50;814421;47;20062;-79
2021/09/03 01:59:18;;;;;;;10.00;5.72;;;;;;;14.54;73.43;100342.06;814573;54;20041;-79
2021/09/03 02:00:06;;;;;;;8.05;6.10;;;;;;;14.56;73.12;100342.75;815535;39;20805;-78
2021/09/03 02:00:54;;;;;;;9.40;6.18;;;;;;;14.59;72.87;100341.56;814756;54;20131;-80
2021/09/03 02:01:40;;;;;;;8.18;5.95;;;;;;;14.64;72.89;100334.69;815472;39;20483;-80
2021/09/03 02:02:30;;;;;;;9.65;6.00;;;;;;;14.58;73.00;100343.44;814680;54;20076;-80
2021/09/03 02:03:16;;;;;;;8.68;5.97;;;;;;;14.48;73.50;100340.84;814706;54;20046;-79
2021/09/03 02:04:05;;;;;;;8.30;6.40;;;;;;;14.54;73.30;100343.91;814590;47;20065;-79
2021/09/03 02:04:51;;;;;;;8.75;6.50;;;;;;;14.51;73.54;100340.53;814898;54;20157;-79
2021/09/03 02:05:39;;;;;;;8.73;6.35;;;;;;;14.55;73.40;100342.91;814633;47;20608;-79
2021/09/03 02:06:25;;;;;;;9.43;6.53;;;;;;;14.47;73.42;100349.09;814594;54;20062;-79
2021/09/03 02:07:19;;;;;;;9.63;7.15;;;;;;;14.39;73.84;100341.84;814480;54;20060;-81
2021/09/03 02:08:05;;;;;;;7.93;5.75;;;;;;;14.37;74.04;100337.63;814686;54;20047;-79
2021/09/03 02:08:55;;;;;;;10.20;6.95;;;;;;;14.36;74.05;100339.47;814716;47;20038;-79
2021/09/03 02:09:41;;;;;;;9.55;6.47;;;;;;;14.38;73.89;100342.84;815385;54;20062;-79
2021/09/03 02:10:29;;;;;;;11.43;6.30;;;;;;;14.32;73.98;100341.63;814782;54;20102;-79
2021/09/03 02:11:18;;;;;;;8.70;6.18;;;;;;;14.24;74.57;100344.28;815158;54;20550;-79
2021/09/03 02:12:13;;;;;;;9.35;6.97;;;;;;;14.25;74.70;100342.47;820063;31;20680;-80
2021/09/03 02:12:59;;;;;;;9.88;6.50;;;;;;;14.26;74.07;100341.47;814887;47;20022;-80
2021/09/03 02:13:48;;;;;;;9.80;6.97;;;;;;;14.18;74.52;100337.72;814710;54;20034;-79
2021/09/03 02:14:34;;;;;;;11.63;7.03;;;;;;;14.16;74.51;100347.81;814858;47;20062;-79
2021/09/03 02:15:23;;;;;;;8.70;6.57;;;;;;;14.17;74.77;100344.09;814725;47;20034;-81
2021/09/03 02:16:09;;;;;;;10.13;7.25;;;;;;;14.18;74.60;100344.94;815159;54;20038;-80
2021/09/03 02:16:57;;;;;;;10.43;6.53;;;;;;;14.15;74.53;100339.88;815277;54;20110;-79
2021/09/03 02:17:43;;;;;;;9.43;7.25;;;;;;;14.12;74.72;100340.22;815133;47;20038;-80
2021/09/03 02:18:34;;;;;;;8.35;6.50;;;;;;;14.10;74.80;100345.75;814871;47;20042;-80
2021/09/03 02:19:27;;;;;;;9.75;6.80;;;;;;;14.10;74.86;100336.84;815211;46;20038;-79
2021/09/03 02:20:16;;;;;;;10.93;7.05;;;;;;;14.07;74.81;100346.09;815107;47;20060;-80
2021/09/03 02:21:02;;;;;;;9.20;6.80;;;;;;;14.09;74.90;100341.38;815217;54;20066;-79
2021/09/03 02:21:50;;;;;;;9.40;6.97;;;;;;;14.11;74.88;100347.44;814808;54;20671;-80
2021/09/03 02:22:39;;;;;;;10.75;6.97;;;;;;;14.09;74.86;100329.78;814769;47;20038;-80
2021/09/03 02:23:27;;;;;;;11.55;6.85;;;;;;;14.17;74.52;100337.88;814771;46;20054;-79
2021/09/03 02:24:13;;;;;;;9.82;6.60;;;;;;;14.16;74.77;100331.69;814617;54;20072;-79
2021/09/03 02:25:02;;;;;;;10.00;7.18;;;;;;;14.14;74.58;100336.38;814816;54;20042;-79
2021/09/03 02:25:54;;;;;;;8.45;6.10;;;;;;;14.15;75.01;100335.38;814625;54;20030;-81
2021/09/03 02:26:43;;;;;;;10.93;7.50;;;;;;;14.11;74.66;100336.69;814628;47;20038;-80
2021/09/03 02:27:29;;;;;;;10.50;6.85;;;;;;;14.14;74.72;100338.19;814711;47;20038;-79
2021/09/03 02:28:19;;;;;;;9.50;6.95;;;;;;;14.12;74.82;100334.84;814686;47;20068;-79
2021/09/03 02:29:05;;;;;;;10.43;7.22;;;;;;;14.10;74.69;100336.84;814649;47;20094;-79
2021/09/03 02:29:54;;;;;;;10.05;7.70;;;;;;;14.07;75.06;100338.03;814748;46;20053;-80
2021/09/03 02:30:40;;;;;;;9.98;7.50;;;;;;;14.12;74.63;100335.69;814573;54;20038;-80
2021/09/03 02:31:28;;;;;;;10.63;7.57;;;;;;;14.17;74.75;100330.66;814636;47;20042;-79
2021/09/03 02:32:16;;;;;;;8.95;6.72;;;;;;;14.22;74.57;100330.16;814665;46;20116;-79
2021/09/03 02:33:05;;;;;;;8.02;5.82;;;;;;;14.35;74.00;100335.13;818011;31;20643;-78
2021/09/03 02:33:51;;;;;;;8.38;6.15;;;;;;;14.42;73.89;100325.38;811867;47;20045;-77
2021/09/03 02:34:40;;;;;;;9.00;6.40;;;;;;;14.40;73.65;100326.56;812049;54;20072;-78
2021/09/03 02:35:26;;;;;;;8.77;6.40;;;;;;;14.43;73.60;100324.38;812289;39;20442;-77
2021/09/03 02:36:15;;;;;;;8.13;6.00;;;;;;;14.55;73.26;100327.59;812147;39;20308;-78
2021/09/03 02:37:02;;;;;;;7.53;5.40;;;;;;;14.64;73.05;100320.41;812126;47;20046;-78
2021/09/03 02:37:53;;;;;;;7.82;5.65;;;;;;;14.64;72.65;100318.53;812272;39;20294;-78
2021/09/03 02:38:39;;;;;;;9.15;6.40;;;;;;;14.56;73.19;100331.13;812029;54;20595;-78
2021/09/03 02:39:27;;;;;;;9.75;6.57;;;;;;;14.53;73.03;100326.91;811664;47;20083;-77
2021/09/03 02:40:13;;;;;;;9.43;6.25;;;;;;;14.59;73.20;100323.59;811576;50;20038;-77
2021/09/03 02:41:02;;;;;;;8.30;6.10;;;;;;;14.65;72.68;100320.22;811614;54;20042;-78
2021/09/03 02:41:48;;;;;;;9.13;5.65;;;;;;;14.70;72.77;100311.69;812162;39;20851;-78
2021/09/03 02:42:36;;;;;;;7.55;5.68;;;;;;;14.75;72.62;100321.97;811725;47;20080;-78
2021/09/03 02:43:22;;;;;;;7.93;5.05;;;;;;;14.81;72.04;100322.16;811706;47;20053;-78
2021/09/03 02:44:11;;;;;;;7.53;4.90;;;;;;;14.87;72.17;100325.16;812088;47;20042;-77
2021/09/03 02:44:57;;;;;;;7.15;5.32;;;;;;;14.87;71.97;100322.47;811790;47;20046;-78
2021/09/03 02:45:45;;;;;;;7.65;5.10;;;;;;;14.91;71.83;100324.69;811885;47;20035;-78
2021/09/03 02:46:31;;;;;;;7.68;5.18;;;;;;;14.86;71.90;100332.41;811815;39;20338;-78
2021/09/03 02:47:20;;;;;;;8.70;5.93;;;;;;;14.81;71.93;100319.47;811986;54;20522;-78
2021/09/03 02:48:06;;;;;;;7.32;5.68;;;;;;;14.78;72.02;100321.66;811810;54;20038;-77
2021/09/03 02:48:54;;;;;;;8.57;5.60;;;;;;;14.72;72.43;100320.47;811802;47;20035;-77
2021/09/03 02:49:40;;;;;;;7.60;5.22;;;;;;;14.71;72.33;100321.47;812849;39;20318;-78
2021/09/03 02:50:29;;;;;;;6.72;5.25;;;;;;;14.72;72.55;100319.59;812165;47;20537;-77
2021/09/03 02:51:15;;;;;;;9.05;6.60;;;;;;;14.68;72.33;100311.00;813147;54;20038;-78
2021/09/03 02:52:04;;;;;;;8.38;6.13;;;;;;;14.68;72.24;100321.78;813691;54;20039;-78
2021/09/03 02:52:52;;;;;;;8.35;6.18;;;;;;;14.67;72.22;100317.41;812722;54;20062;-78
2021/09/03 02:53:42;;;;;;;9.07;5.95;;;;;;;14.70;72.39;100324.28;812174;47;20054;-78
2021/09/03 02:54:28;;;;;;;9.00;5.65;;;;;;;14.75;71.95;100317.41;812114;47;20038;-77
2021/09/03 02:55:16;;;;;;;7.95;5.43;;;;;;;14.85;71.73;100321.81;812395;39;20462;-77
2021/09/03 02:56:03;;;;;;;7.63;5.43;;;;;;;14.87;71.71;100322.47;812226;54;20604;-78
2021/09/03 02:56:52;;;;;;;7.82;5.30;;;;;;;14.94;71.42;100320.81;811628;54;20070;-78
2021/09/03 02:57:38;;;;;;;7.70;5.40;;;;;;;14.98;71.62;100320.31;812707;39;20458;-78
2021/09/03 02:58:26;;;;;;;7.70;5.28;;;;;;;15.00;71.15;100322.84;812128;54;20034;-77
2021/09/03 02:59:12;;;;;;;5.88;4.30;;;;;;;15.01;71.26;100319.16;811786;47;20062;-78
2021/09/03 03:00:01;;;;;;;7.05;4.93;;;;;;;15.01;71.09;100319.16;811792;47;20050;-77
2021/09/03 03:00:47;;;;;;;7.80;4.65;;;;;;;15.01;71.16;100329.91;811945;47;20580;-78
2021/09/03 03:01:36;;;;;;;7.35;5.07;;;;;;;14.97;71.27;100323.16;811998;47;20034;-77
2021/09/03 03:02:22;;;;;;;8.05;4.80;;;;;;;14.96;71.39;100321.47;812167;54;20064;-78
2021/09/03 03:03:10;;;;;;;6.55;4.40;;;;;;;14.97;71.09;100331.25;811977;47;20066;-77
2021/09/03 03:03:56;;;;;;;7.03;4.90;;;;;;;14.95;71.13;100331.41;812204;47;20034;-78
2021/09/03 03:04:44;;;;;;;7.40;4.93;;;;;;;14.96;71.34;100326.88;811778;47;20042;-78
2021/09/03 03:05:30;;;;;;;7.75;4.97;;;;;;;14.93;71.19;100322.66;811851;47;20047;-78
2021/09/03 03:06:19;;;;;;;7.43;5.55;;;;;;;14.93;71.27;100321.81;812626;47;20624;-78
2021/09/03 03:07:05;;;;;;;7.47;4.93;;;;;;;14.94;71.37;100323.50;812020;47;20134;-79
2021/09/03 03:07:56;;;;;;;7.88;5.07;;;;;;;14.95;71.37;100325.19;811880;54;20790;-78
2021/09/03 03:08:42;;;;;;;7.97;5.55;;;;;;;14.96;71.21;100321.47;813465;39;20443;-77
2021/09/03 03:09:30;;;;;;;7.32;5.30;;;;;;;14.90;71.64;100323.00;811734;47;20187;-78
2021/09/03 03:10:17;;;;;;;9.02;4.88;;;;;;;14.93;71.46;100319.13;811934;47;20039;-78
2021/09/03 03:11:05;;;;;;;8.15;5.35;;;;;;;14.96;71.15;100322.34;812524;39;20418;-78
2021/09/03 03:11:51;;;;;;;8.60;5.47;;;;;;;14.98;71.21;100320.31;812241;39;20402;-77
2021/09/03 03:12:40;;;;;;;7.82;5.18;;;;;;;15.01;71.14;100321.84;811787;54;20059;-77
2021/09/03 03:13:27;;;;;;;7.30;4.60;;;;;;;15.03;71.39;100327.03;813155;39;20448;-77
2021/09/03 03:14:26;;;;;;;7.38;4.35;;;;;;;15.04;71.17;100312.59;811947;47;20069;-79
2021/09/03 03:15:12;;;;;;;6.90;4.57;;;;;;;15.02;71.31;100317.28;813486;31;20594;-77
2021/09/03 03:16:01;;;;;;;8.10;4.88;;;;;;;15.04;70.79;100318.78;812092;47;20047;-77
2021/09/03 03:16:47;;;;;;;6.85;4.45;;;;;;;15.04;70.81;100313.41;811492;47;20063;-78
2021/09/03 03:17:35;;;;;;;6.90;4.35;;;;;;;15.05;70.96;100320.47;811745;54;20043;-77
2021/09/03 03:18:22;;;;;;;5.97;4.20;;;;;;;15.05;70.92;100315.09;811844;47;20086;-77
2021/09/03 03:19:10;;;;;;;6.07;4.22;;;;;;;15.06;70.86;100311.41;813707;31;20622;-78
2021/09/03 03:19:56;;;;;;;5.75;4.18;;;;;;;15.04;70.74;100313.41;811834;54;20066;-78
2021/09/03 03:20:46;;;;;;;6.82;4.15;;;;;;;15.08;70.77;100309.38;811680;47;20059;-78
2021/09/03 03:21:32;;;;;;;7.38;4.28;;;;;;;15.07;70.65;100305.00;811713;47;20082;-78
2021/09/03 03:22:21;;;;;;;6.80;4.15;;;;;;;15.08;70.54;100308.53;811911;47;20035;-78
2021/09/03 03:23:09;;;;;;;8.10;4.60;;;;;;;15.06;70.84;100307.88;811819;47;20047;-77
2021/09/03 03:23:58;;;;;;;7.38;4.82;;;;;;;15.08;70.93;100304.00;811851;54;20059;-79
2021/09/03 03:24:51;;;;;;;6.50;4.13;;;;;;;15.06;70.69;100300.63;811721;47;20053;-76
2021/09/03 03:25:48;;;;;;;8.95;5.20;;;;;;;15.03;70.81;100302.81;811865;39;20423;-78
2021/09/03 03:26:38;;;;;;;8.65;4.72;;;;;;;15.00;71.18;100305.84;811141;47;20070;-78
2021/09/03 03:27:27;;;;;;;8.13;5.15;;;;;;;14.97;71.12;100298.94;811699;54;20034;-77
2021/09/03 03:28:13;;;;;;;7.32;4.75;;;;;;;14.96;70.96;100300.81;811823;54;20071;-77
2021/09/03 03:29:03;;;;;;;7.22;5.20;;;;;;;14.98;71.05;100297.94;812026;54;20089;-79
2021/09/03 03:29:49;;;;;;;7.63;4.80;;;;;;;14.96;71.08;100303.50;811712;54;20038;-78
2021/09/03 03:30:38;;;;;;;7.10;4.90;;;;;;;14.98;71.17;100303.31;811815;47;20098;-78
2021/09/03 03:31:24;;;;;;;6.60;4.55;;;;;;;14.97;70.92;100301.63;812443;39;20464;-77
2021/09/03 03:32:12;;;;;;;7.70;4.22;;;;;;;15.01;71.19;100296.75;811810;47;20034;-78
2021/09/03 03:32:58;;;;;;;7.65;4.63;;;;;;;15.01;71.24;100299.44;812414;39;20417;-76
2021/09/03 03:33:47;;;;;;;10.45;4.93;;;;;;;14.89;71.22;100293.56;811870;47;20066;-78
2021/09/03 03:34:33;;;;;;;8.82;5.13;;;;;;;14.88;71.44;100294.56;811955;54;20063;-77
2021/09/03 03:35:22;;;;;;;7.97;4.90;;;;;;;14.87;71.51;100296.44;811875;47;20081;-78
2021/09/03 03:36:11;;;;;;;7.55;5.03;;;;;;;14.86;71.79;100296.56;812315;39;20553;-78
2021/09/03 03:36:57;;;;;;;7.38;5.00;;;;;;;14.89;71.40;100293.56;812084;54;20552;-77
2021/09/03 03:37:45;;;;;;;7.10;4.78;;;;;;;14.91;71.37;100288.84;811977;47;20034;-77
2021/09/03 03:38:34;;;;;;;8.75;5.45;;;;;;;14.89;71.41;100296.25;811942;47;20039;-77
2021/09/03 03:39:22;;;;;;;7.70;4.38;;;;;;;14.96;71.18;100290.03;811807;47;20034;-78
2021/09/03 03:40:10;;;;;;;6.90;4.75;;;;;;;15.00;71.24;100295.94;811865;54;20038;-79
2021/09/03 03:40:59;;;;;;;11.15;5.20;;;;;;;15.04;71.18;100293.75;811980;54;20034;-78
2021/09/03 03:41:45;;;;;;;8.50;4.75;;;;;;;15.05;71.28;100288.19;812085;47;20055;-77
2021/09/03 03:42:33;;;;;;;7.93;4.28;;;;;;;15.08;71.11;100287.84;811730;54;20046;-78
2021/09/03 03:43:19;;;;;;;8.18;4.70;;;;;;;15.07;70.92;100290.69;811955;47;20091;-77
2021/09/03 03:44:08;;;;;;;10.93;5.05;;;;;;;15.09;70.83;100291.38;811818;47;20035;-78
2021/09/03 03:44:54;;;;;;;8.63;4.82;;;;;;;15.08;71.02;100287.84;812541;39;20575;-77